sensor_id;sensor_type;location;lat;lon;timestamp;P1;durP1;ratioP1;P2;durP2;ratioP2
46651;SDS011;32377;52.182;5.398;2022-11-15T00:02:07;63.17;;;28.70;;
46651;SDS011;32377;52.182;5.398;2022-11-15T00:04:33;65.45;;;29.88;;
46651;SDS011;32377;52.182;5.398;2022-11-15T00:06:58;61.65;;;28.60;;
46651;SDS011;32377;52.182;5.398;2022-11-15T00:09:24;59.10;;;29.27;;
46651;SDS011;32377;52.182;5.398;2022-11-15T00:11:50;66.70;;;29.23;;
46651;SDS011;32377;52.182;5.398;2022-11-15T00:14:16;62.70;;;28.13;;
46651;SDS011;32377;52.182;5.398;2022-11-15T00:16:42;62.33;;;27.98;;
46651;SDS011;32377;52.182;5.398;2022-11-15T00:19:08;63.60;;;29.33;;
46651;SDS011;32377;52.182;5.398;2022-11-15T00:21:34;63.80;;;29.13;;
46651;SDS011;32377;52.182;5.398;2022-11-15T00:23:59;63.28;;;28.88;;
46651;SDS011;32377;52.182;5.398;2022-11-15T00:26:25;72.63;;;29.85;;
46651;SDS011;32377;52.182;5.398;2022-11-15T00:28:51;71.10;;;32.67;;
46651;SDS011;32377;52.182;5.398;2022-11-15T00:31:17;75.25;;;31.80;;
46651;SDS011;32377;52.182;5.398;2022-11-15T00:33:43;74.63;;;32.97;;
46651;SDS011;32377;52.182;5.398;2022-11-15T00:36:09;84.20;;;33.95;;
46651;SDS011;32377;52.182;5.398;2022-11-15T00:38:36;80.97;;;33.22;;
46651;SDS011;32377;52.182;5.398;2022-11-15T00:41:05;86.63;;;35.10;;
46651;SDS011;32377;52.182;5.398;2022-11-15T00:43:32;88.85;;;35.47;;
46651;SDS011;32377;52.182;5.398;2022-11-15T00:45:58;86.53;;;34.15;;
46651;SDS011;32377;52.182;5.398;2022-11-15T00:48:23;82.90;;;34.38;;
46651;SDS011;32377;52.182;5.398;2022-11-15T00:50:49;87.82;;;35.78;;
46651;SDS011;32377;52.182;5.398;2022-11-15T00:53:15;85.95;;;35.33;;
46651;SDS011;32377;52.182;5.398;2022-11-15T00:55:42;89.90;;;35.78;;
46651;SDS011;32377;52.182;5.398;2022-11-15T00:58:07;93.78;;;36.35;;
46651;SDS011;32377;52.182;5.398;2022-11-15T01:00:33;98.82;;;37.20;;
46651;SDS011;32377;52.182;5.398;2022-11-15T01:02:59;91.70;;;37.42;;
46651;SDS011;32377;52.182;5.398;2022-11-15T01:05:26;98.88;;;38.17;;
46651;SDS011;32377;52.182;5.398;2022-11-15T01:07:52;107.10;;;38.25;;
46651;SDS011;32377;52.182;5.398;2022-11-15T01:10:19;103.55;;;38.88;;
46651;SDS011;32377;52.182;5.398;2022-11-15T01:12:45;94.10;;;37.53;;
46651;SDS011;32377;52.182;5.398;2022-11-15T01:15:11;100.47;;;37.33;;
46651;SDS011;32377;52.182;5.398;2022-11-15T01:17:37;103.13;;;38.30;;
46651;SDS011;32377;52.182;5.398;2022-11-15T01:20:02;96.10;;;39.50;;
46651;SDS011;32377;52.182;5.398;2022-11-15T01:22:28;99.90;;;40.53;;
46651;SDS011;32377;52.182;5.398;2022-11-15T01:24:54;98.50;;;38.13;;
46651;SDS011;32377;52.182;5.398;2022-11-15T01:27:19;98.25;;;37.35;;
46651;SDS011;32377;52.182;5.398;2022-11-15T01:29:45;93.60;;;38.25;;
46651;SDS011;32377;52.182;5.398;2022-11-15T01:32:11;96.22;;;38.67;;
46651;SDS011;32377;52.182;5.398;2022-11-15T01:34:37;97.07;;;39.55;;
46651;SDS011;32377;52.182;5.398;2022-11-15T01:37:02;97.05;;;38.97;;
46651;SDS011;32377;52.182;5.398;2022-11-15T01:39:28;95.43;;;38.13;;
46651;SDS011;32377;52.182;5.398;2022-11-15T01:41:53;105.38;;;40.15;;
46651;SDS011;32377;52.182;5.398;2022-11-15T01:44:31;93.32;;;38.35;;
46651;SDS011;32377;52.182;5.398;2022-11-15T01:47:23;91.35;;;36.30;;
46651;SDS011;32377;52.182;5.398;2022-11-15T01:50:03;101.95;;;38.33;;
46651;SDS011;32377;52.182;5.398;2022-11-15T01:52:50;82.80;;;36.25;;
46651;SDS011;32377;52.182;5.398;2022-11-15T01:55:17;96.85;;;39.95;;
46651;SDS011;32377;52.182;5.398;2022-11-15T01:57:47;99.72;;;40.03;;
46651;SDS011;32377;52.182;5.398;2022-11-15T02:00:16;95.82;;;39.55;;
46651;SDS011;32377;52.182;5.398;2022-11-15T02:02:42;101.00;;;39.63;;
46651;SDS011;32377;52.182;5.398;2022-11-15T02:05:08;86.00;;;38.85;;
46651;SDS011;32377;52.182;5.398;2022-11-15T02:07:35;89.35;;;36.72;;
46651;SDS011;32377;52.182;5.398;2022-11-15T02:10:05;96.45;;;40.13;;
46651;SDS011;32377;52.182;5.398;2022-11-15T02:12:37;99.45;;;39.92;;
46651;SDS011;32377;52.182;5.398;2022-11-15T02:15:04;97.97;;;39.40;;
46651;SDS011;32377;52.182;5.398;2022-11-15T02:34:12;101.63;;;41.30;;
46651;SDS011;32377;52.182;5.398;2022-11-15T02:40:05;91.07;;;40.33;;
46651;SDS011;32377;52.182;5.398;2022-11-15T02:42:53;92.57;;;38.75;;
46651;SDS011;32377;52.182;5.398;2022-11-15T02:45:48;91.18;;;39.40;;
46651;SDS011;32377;52.182;5.398;2022-11-15T02:48:17;96.85;;;39.58;;
46651;SDS011;32377;52.182;5.398;2022-11-15T02:50:46;86.50;;;39.58;;
46651;SDS011;32377;52.182;5.398;2022-11-15T02:53:13;95.63;;;42.08;;
46651;SDS011;32377;52.182;5.398;2022-11-15T02:55:43;97.55;;;40.88;;
46651;SDS011;32377;52.182;5.398;2022-11-15T03:00:52;87.90;;;39.63;;
46651;SDS011;32377;52.182;5.398;2022-11-15T03:06:52;85.40;;;39.10;;
46651;SDS011;32377;52.182;5.398;2022-11-15T03:12:01;88.80;;;40.57;;
46651;SDS011;32377;52.182;5.398;2022-11-15T03:14:34;84.07;;;39.30;;
46651;SDS011;32377;52.182;5.398;2022-11-15T03:19:55;88.90;;;39.75;;
46651;SDS011;32377;52.182;5.398;2022-11-15T03:22:24;81.28;;;40.20;;
46651;SDS011;32377;52.182;5.398;2022-11-15T03:24:53;86.05;;;39.55;;
46651;SDS011;32377;52.182;5.398;2022-11-15T03:27:23;79.38;;;39.42;;
46651;SDS011;32377;52.182;5.398;2022-11-15T03:29:55;94.43;;;40.47;;
46651;SDS011;32377;52.182;5.398;2022-11-15T03:32:25;86.05;;;40.72;;
46651;SDS011;32377;52.182;5.398;2022-11-15T03:35:10;85.13;;;40.10;;
46651;SDS011;32377;52.182;5.398;2022-11-15T03:37:59;86.90;;;38.85;;
46651;SDS011;32377;52.182;5.398;2022-11-15T03:40:36;89.93;;;40.28;;
46651;SDS011;32377;52.182;5.398;2022-11-15T03:43:10;91.80;;;39.33;;
46651;SDS011;32377;52.182;5.398;2022-11-15T03:45:46;86.00;;;39.03;;
46651;SDS011;32377;52.182;5.398;2022-11-15T03:48:18;85.97;;;38.90;;
46651;SDS011;32377;52.182;5.398;2022-11-15T03:50:49;80.22;;;37.80;;
46651;SDS011;32377;52.182;5.398;2022-11-15T03:53:16;76.47;;;39.58;;
46651;SDS011;32377;52.182;5.398;2022-11-15T03:55:42;91.75;;;40.63;;
46651;SDS011;32377;52.182;5.398;2022-11-15T03:58:08;85.03;;;40.42;;
46651;SDS011;32377;52.182;5.398;2022-11-15T04:00:34;78.65;;;38.58;;
46651;SDS011;32377;52.182;5.398;2022-11-15T04:02:59;83.70;;;40.13;;
46651;SDS011;32377;52.182;5.398;2022-11-15T04:05:25;82.97;;;40.70;;
46651;SDS011;32377;52.182;5.398;2022-11-15T04:07:51;86.03;;;39.72;;
46651;SDS011;32377;52.182;5.398;2022-11-15T04:10:16;80.10;;;38.83;;
46651;SDS011;32377;52.182;5.398;2022-11-15T04:12:43;81.00;;;38.67;;
46651;SDS011;32377;52.182;5.398;2022-11-15T04:15:13;83.45;;;39.30;;
46651;SDS011;32377;52.182;5.398;2022-11-15T04:20:19;78.68;;;37.70;;
46651;SDS011;32377;52.182;5.398;2022-11-15T04:23:12;77.65;;;37.47;;
46651;SDS011;32377;52.182;5.398;2022-11-15T04:25:58;78.55;;;36.88;;
46651;SDS011;32377;52.182;5.398;2022-11-15T04:28:26;78.50;;;39.03;;
46651;SDS011;32377;52.182;5.398;2022-11-15T04:30:51;71.25;;;36.35;;
46651;SDS011;32377;52.182;5.398;2022-11-15T04:33:17;75.63;;;38.95;;
46651;SDS011;32377;52.182;5.398;2022-11-15T04:35:43;72.10;;;37.78;;
46651;SDS011;32377;52.182;5.398;2022-11-15T04:38:29;69.47;;;36.80;;
46651;SDS011;32377;52.182;5.398;2022-11-15T04:40:54;70.00;;;35.92;;
46651;SDS011;32377;52.182;5.398;2022-11-15T04:43:20;83.78;;;38.65;;
46651;SDS011;32377;52.182;5.398;2022-11-15T04:45:45;65.40;;;35.55;;
46651;SDS011;32377;52.182;5.398;2022-11-15T04:48:11;69.93;;;37.88;;
46651;SDS011;32377;52.182;5.398;2022-11-15T04:50:36;63.00;;;35.85;;
46651;SDS011;32377;52.182;5.398;2022-11-15T04:53:02;72.72;;;37.50;;
46651;SDS011;32377;52.182;5.398;2022-11-15T04:55:28;72.22;;;35.65;;
46651;SDS011;32377;52.182;5.398;2022-11-15T04:58:00;73.20;;;36.47;;
46651;SDS011;32377;52.182;5.398;2022-11-15T05:00:27;65.45;;;35.92;;
46651;SDS011;32377;52.182;5.398;2022-11-15T05:02:53;74.03;;;36.75;;
46651;SDS011;32377;52.182;5.398;2022-11-15T05:05:38;78.13;;;37.38;;
46651;SDS011;32377;52.182;5.398;2022-11-15T05:08:04;73.38;;;36.58;;
46651;SDS011;32377;52.182;5.398;2022-11-15T05:10:29;71.22;;;36.50;;
46651;SDS011;32377;52.182;5.398;2022-11-15T05:12:55;68.40;;;35.42;;
46651;SDS011;32377;52.182;5.398;2022-11-15T05:15:21;65.03;;;33.70;;
46651;SDS011;32377;52.182;5.398;2022-11-15T05:17:47;72.65;;;35.90;;
46651;SDS011;32377;52.182;5.398;2022-11-15T05:20:12;68.95;;;34.90;;
46651;SDS011;32377;52.182;5.398;2022-11-15T05:22:38;60.97;;;34.65;;
46651;SDS011;32377;52.182;5.398;2022-11-15T05:25:04;62.67;;;33.28;;
46651;SDS011;32377;52.182;5.398;2022-11-15T05:27:31;59.33;;;34.47;;
46651;SDS011;32377;52.182;5.398;2022-11-15T05:29:57;73.50;;;33.72;;
46651;SDS011;32377;52.182;5.398;2022-11-15T05:32:23;64.68;;;32.95;;
46651;SDS011;32377;52.182;5.398;2022-11-15T05:34:49;61.20;;;32.83;;
46651;SDS011;32377;52.182;5.398;2022-11-15T05:37:15;67.93;;;34.88;;
46651;SDS011;32377;52.182;5.398;2022-11-15T05:39:41;69.53;;;36.30;;
46651;SDS011;32377;52.182;5.398;2022-11-15T05:42:11;65.13;;;36.25;;
46651;SDS011;32377;52.182;5.398;2022-11-15T05:44:41;62.38;;;35.05;;
46651;SDS011;32377;52.182;5.398;2022-11-15T05:47:12;65.25;;;34.80;;
46651;SDS011;32377;52.182;5.398;2022-11-15T05:49:47;66.45;;;35.17;;
46651;SDS011;32377;52.182;5.398;2022-11-15T05:52:16;63.10;;;34.17;;
46651;SDS011;32377;52.182;5.398;2022-11-15T05:54:45;67.50;;;36.15;;
46651;SDS011;32377;52.182;5.398;2022-11-15T05:57:10;65.75;;;34.28;;
46651;SDS011;32377;52.182;5.398;2022-11-15T05:59:36;63.20;;;34.92;;
46651;SDS011;32377;52.182;5.398;2022-11-15T06:02:03;62.10;;;34.22;;
46651;SDS011;32377;52.182;5.398;2022-11-15T06:04:28;62.83;;;33.33;;
46651;SDS011;32377;52.182;5.398;2022-11-15T06:06:54;62.00;;;33.38;;
46651;SDS011;32377;52.182;5.398;2022-11-15T06:09:19;60.05;;;34.55;;
46651;SDS011;32377;52.182;5.398;2022-11-15T06:11:45;59.42;;;33.17;;
46651;SDS011;32377;52.182;5.398;2022-11-15T06:14:10;64.50;;;34.05;;
46651;SDS011;32377;52.182;5.398;2022-11-15T06:16:36;59.97;;;33.92;;
46651;SDS011;32377;52.182;5.398;2022-11-15T06:19:02;65.60;;;35.40;;
46651;SDS011;32377;52.182;5.398;2022-11-15T06:21:27;68.15;;;35.03;;
46651;SDS011;32377;52.182;5.398;2022-11-15T06:23:54;66.63;;;34.40;;
46651;SDS011;32377;52.182;5.398;2022-11-15T06:26:19;72.55;;;33.97;;
46651;SDS011;32377;52.182;5.398;2022-11-15T06:28:45;66.85;;;36.33;;
46651;SDS011;32377;52.182;5.398;2022-11-15T06:31:11;72.05;;;37.63;;
46651;SDS011;32377;52.182;5.398;2022-11-15T06:33:37;59.58;;;35.55;;
46651;SDS011;32377;52.182;5.398;2022-11-15T06:36:04;68.85;;;35.95;;
46651;SDS011;32377;52.182;5.398;2022-11-15T06:38:35;59.67;;;34.15;;
46651;SDS011;32377;52.182;5.398;2022-11-15T06:41:05;64.32;;;35.78;;
46651;SDS011;32377;52.182;5.398;2022-11-15T06:43:32;66.22;;;35.55;;
46651;SDS011;32377;52.182;5.398;2022-11-15T06:45:59;68.55;;;35.33;;
46651;SDS011;32377;52.182;5.398;2022-11-15T06:48:26;65.68;;;34.28;;
46651;SDS011;32377;52.182;5.398;2022-11-15T06:50:53;68.20;;;35.25;;
46651;SDS011;32377;52.182;5.398;2022-11-15T06:53:19;64.47;;;34.63;;
46651;SDS011;32377;52.182;5.398;2022-11-15T06:55:45;62.08;;;33.58;;
46651;SDS011;32377;52.182;5.398;2022-11-15T06:58:10;72.68;;;35.80;;
46651;SDS011;32377;52.182;5.398;2022-11-15T07:00:36;71.28;;;37.20;;
46651;SDS011;32377;52.182;5.398;2022-11-15T07:03:02;70.68;;;35.25;;
46651;SDS011;32377;52.182;5.398;2022-11-15T07:05:28;63.67;;;34.33;;
46651;SDS011;32377;52.182;5.398;2022-11-15T07:07:55;66.30;;;36.22;;
46651;SDS011;32377;52.182;5.398;2022-11-15T07:10:22;72.43;;;36.63;;
46651;SDS011;32377;52.182;5.398;2022-11-15T07:12:50;73.10;;;35.90;;
46651;SDS011;32377;52.182;5.398;2022-11-15T07:15:16;70.53;;;36.20;;
46651;SDS011;32377;52.182;5.398;2022-11-15T07:17:43;67.30;;;35.92;;
46651;SDS011;32377;52.182;5.398;2022-11-15T07:20:09;70.03;;;37.10;;
46651;SDS011;32377;52.182;5.398;2022-11-15T07:22:35;69.55;;;34.75;;
46651;SDS011;32377;52.182;5.398;2022-11-15T07:25:01;72.57;;;35.30;;
46651;SDS011;32377;52.182;5.398;2022-11-15T07:27:26;77.57;;;37.72;;
46651;SDS011;32377;52.182;5.398;2022-11-15T07:29:55;68.00;;;36.38;;
46651;SDS011;32377;52.182;5.398;2022-11-15T07:32:20;73.15;;;36.60;;
46651;SDS011;32377;52.182;5.398;2022-11-15T07:34:46;72.55;;;36.17;;
46651;SDS011;32377;52.182;5.398;2022-11-15T07:37:12;68.93;;;34.38;;
46651;SDS011;32377;52.182;5.398;2022-11-15T07:39:38;63.53;;;35.22;;
46651;SDS011;32377;52.182;5.398;2022-11-15T07:42:03;68.13;;;35.40;;
46651;SDS011;32377;52.182;5.398;2022-11-15T07:44:48;67.15;;;33.85;;
46651;SDS011;32377;52.182;5.398;2022-11-15T07:47:13;64.40;;;33.33;;
46651;SDS011;32377;52.182;5.398;2022-11-15T07:49:39;62.20;;;34.40;;
46651;SDS011;32377;52.182;5.398;2022-11-15T07:52:05;66.30;;;34.63;;
46651;SDS011;32377;52.182;5.398;2022-11-15T07:54:31;60.35;;;32.70;;
46651;SDS011;32377;52.182;5.398;2022-11-15T07:56:56;60.47;;;32.95;;
46651;SDS011;32377;52.182;5.398;2022-11-15T07:59:22;67.57;;;33.22;;
46651;SDS011;32377;52.182;5.398;2022-11-15T08:01:47;63.17;;;31.95;;
46651;SDS011;32377;52.182;5.398;2022-11-15T08:04:13;60.67;;;31.98;;
46651;SDS011;32377;52.182;5.398;2022-11-15T08:06:38;57.97;;;30.67;;
46651;SDS011;32377;52.182;5.398;2022-11-15T08:09:04;55.33;;;29.33;;
46651;SDS011;32377;52.182;5.398;2022-11-15T08:11:30;53.08;;;29.45;;
46651;SDS011;32377;52.182;5.398;2022-11-15T08:13:55;62.25;;;30.13;;
46651;SDS011;32377;52.182;5.398;2022-11-15T08:16:21;52.70;;;29.00;;
46651;SDS011;32377;52.182;5.398;2022-11-15T08:18:46;55.10;;;29.30;;
46651;SDS011;32377;52.182;5.398;2022-11-15T08:21:14;52.20;;;28.30;;
46651;SDS011;32377;52.182;5.398;2022-11-15T08:23:43;56.78;;;27.77;;
46651;SDS011;32377;52.182;5.398;2022-11-15T08:26:09;52.03;;;28.00;;
46651;SDS011;32377;52.182;5.398;2022-11-15T08:28:35;52.33;;;27.83;;
46651;SDS011;32377;52.182;5.398;2022-11-15T08:31:01;51.42;;;27.48;;
46651;SDS011;32377;52.182;5.398;2022-11-15T08:33:28;45.10;;;24.80;;
46651;SDS011;32377;52.182;5.398;2022-11-15T08:35:56;45.72;;;26.17;;
46651;SDS011;32377;52.182;5.398;2022-11-15T08:38:22;50.92;;;25.27;;
46651;SDS011;32377;52.182;5.398;2022-11-15T08:40:48;46.03;;;25.77;;
46651;SDS011;32377;52.182;5.398;2022-11-15T08:43:15;40.60;;;24.38;;
46651;SDS011;32377;52.182;5.398;2022-11-15T08:45:40;39.83;;;23.88;;
46651;SDS011;32377;52.182;5.398;2022-11-15T08:48:06;43.92;;;24.48;;
46651;SDS011;32377;52.182;5.398;2022-11-15T08:50:31;41.15;;;24.52;;
46651;SDS011;32377;52.182;5.398;2022-11-15T08:52:57;43.03;;;22.38;;
46651;SDS011;32377;52.182;5.398;2022-11-15T08:55:28;42.45;;;22.70;;
46651;SDS011;32377;52.182;5.398;2022-11-15T08:57:56;40.33;;;21.42;;
46651;SDS011;32377;52.182;5.398;2022-11-15T09:00:22;38.80;;;22.02;;
46651;SDS011;32377;52.182;5.398;2022-11-15T09:02:48;38.80;;;21.67;;
46651;SDS011;32377;52.182;5.398;2022-11-15T09:05:13;38.08;;;21.05;;
46651;SDS011;32377;52.182;5.398;2022-11-15T09:07:40;37.83;;;21.83;;
46651;SDS011;32377;52.182;5.398;2022-11-15T09:10:06;37.10;;;21.17;;
46651;SDS011;32377;52.182;5.398;2022-11-15T09:12:32;35.58;;;21.95;;
46651;SDS011;32377;52.182;5.398;2022-11-15T09:14:57;32.92;;;18.92;;
46651;SDS011;32377;52.182;5.398;2022-11-15T09:17:23;41.70;;;21.63;;
46651;SDS011;32377;52.182;5.398;2022-11-15T09:19:49;35.10;;;20.83;;
46651;SDS011;32377;52.182;5.398;2022-11-15T09:22:14;45.17;;;21.08;;
46651;SDS011;32377;52.182;5.398;2022-11-15T09:24:40;38.38;;;20.38;;
46651;SDS011;32377;52.182;5.398;2022-11-15T09:27:06;36.75;;;20.92;;
46651;SDS011;32377;52.182;5.398;2022-11-15T09:29:31;35.60;;;21.08;;
46651;SDS011;32377;52.182;5.398;2022-11-15T09:31:57;37.67;;;20.50;;
46651;SDS011;32377;52.182;5.398;2022-11-15T09:34:22;30.67;;;20.17;;
46651;SDS011;32377;52.182;5.398;2022-11-15T09:36:48;32.83;;;18.48;;
46651;SDS011;32377;52.182;5.398;2022-11-15T09:39:13;28.25;;;17.95;;
46651;SDS011;32377;52.182;5.398;2022-11-15T09:44:47;36.17;;;18.80;;
46651;SDS011;32377;52.182;5.398;2022-11-15T09:50:10;29.95;;;16.20;;
46651;SDS011;32377;52.182;5.398;2022-11-15T09:52:39;25.05;;;16.35;;
46651;SDS011;32377;52.182;5.398;2022-11-15T09:55:09;25.23;;;15.25;;
46651;SDS011;32377;52.182;5.398;2022-11-15T09:57:57;21.90;;;13.73;;
46651;SDS011;32377;52.182;5.398;2022-11-15T10:00:32;20.52;;;12.75;;
46651;SDS011;32377;52.182;5.398;2022-11-15T10:03:15;21.90;;;13.20;;
46651;SDS011;32377;52.182;5.398;2022-11-15T10:06:02;20.20;;;10.85;;
46651;SDS011;32377;52.182;5.398;2022-11-15T10:11:30;18.35;;;10.48;;
46651;SDS011;32377;52.182;5.398;2022-11-15T10:13:59;22.45;;;10.93;;
46651;SDS011;32377;52.182;5.398;2022-11-15T10:24:47;30.05;;;16.02;;
46651;SDS011;32377;52.182;5.398;2022-11-15T10:27:17;16.15;;;9.98;;
46651;SDS011;32377;52.182;5.398;2022-11-15T10:29:44;15.43;;;9.52;;
46651;SDS011;32377;52.182;5.398;2022-11-15T10:32:13;18.00;;;9.57;;
46651;SDS011;32377;52.182;5.398;2022-11-15T10:34:41;10.63;;;7.63;;
46651;SDS011;32377;52.182;5.398;2022-11-15T10:37:07;14.23;;;7.30;;
46651;SDS011;32377;52.182;5.398;2022-11-15T10:39:32;12.07;;;7.45;;
46651;SDS011;32377;52.182;5.398;2022-11-15T10:42:00;18.75;;;7.10;;
46651;SDS011;32377;52.182;5.398;2022-11-15T10:44:51;12.18;;;6.68;;
46651;SDS011;32377;52.182;5.398;2022-11-15T10:47:27;10.40;;;6.53;;
46651;SDS011;32377;52.182;5.398;2022-11-15T10:49:57;12.48;;;6.38;;
46651;SDS011;32377;52.182;5.398;2022-11-15T10:52:33;10.75;;;6.05;;
46651;SDS011;32377;52.182;5.398;2022-11-15T10:55:03;9.73;;;5.95;;
46651;SDS011;32377;52.182;5.398;2022-11-15T10:57:47;19.65;;;7.65;;
46651;SDS011;32377;52.182;5.398;2022-11-15T11:00:34;48.38;;;18.48;;
46651;SDS011;32377;52.182;5.398;2022-11-15T11:03:05;22.33;;;6.63;;
46651;SDS011;32377;52.182;5.398;2022-11-15T11:05:50;8.75;;;4.50;;
46651;SDS011;32377;52.182;5.398;2022-11-15T11:08:29;8.23;;;5.00;;
46651;SDS011;32377;52.182;5.398;2022-11-15T11:10:55;7.85;;;5.78;;
46651;SDS011;32377;52.182;5.398;2022-11-15T11:13:26;10.98;;;5.70;;
46651;SDS011;32377;52.182;5.398;2022-11-15T11:18:37;8.45;;;4.70;;
46651;SDS011;32377;52.182;5.398;2022-11-15T11:21:26;6.88;;;4.60;;
46651;SDS011;32377;52.182;5.398;2022-11-15T11:24:56;6.15;;;4.45;;
46651;SDS011;32377;52.182;5.398;2022-11-15T11:27:02;8.30;;;4.60;;
46651;SDS011;32377;52.182;5.398;2022-11-15T11:35:04;11.43;;;3.95;;
46651;SDS011;32377;52.182;5.398;2022-11-15T11:43:08;6.07;;;4.22;;
46651;SDS011;32377;52.182;5.398;2022-11-15T11:45:57;6.18;;;3.88;;
46651;SDS011;32377;52.182;5.398;2022-11-15T11:48:38;8.68;;;3.92;;
46651;SDS011;32377;52.182;5.398;2022-11-15T11:51:12;10.93;;;4.05;;
46651;SDS011;32377;52.182;5.398;2022-11-15T11:54:22;8.50;;;4.07;;
46651;SDS011;32377;52.182;5.398;2022-11-15T11:56:56;10.45;;;3.85;;
46651;SDS011;32377;52.182;5.398;2022-11-15T12:00:12;7.03;;;3.25;;
46651;SDS011;32377;52.182;5.398;2022-11-15T12:02:36;6.15;;;3.17;;
46651;SDS011;32377;52.182;5.398;2022-11-15T12:08:04;6.28;;;3.00;;
46651;SDS011;32377;52.182;5.398;2022-11-15T12:11:04;9.00;;;2.85;;
46651;SDS011;32377;52.182;5.398;2022-11-15T12:13:40;7.68;;;2.60;;
46651;SDS011;32377;52.182;5.398;2022-11-15T12:18:41;6.07;;;2.55;;
46651;SDS011;32377;52.182;5.398;2022-11-15T12:21:55;8.40;;;2.50;;
46651;SDS011;32377;52.182;5.398;2022-11-15T12:24:31;9.68;;;2.72;;
46651;SDS011;32377;52.182;5.398;2022-11-15T12:30:13;15.82;;;2.50;;
46651;SDS011;32377;52.182;5.398;2022-11-15T12:32:59;6.90;;;2.30;;
46651;SDS011;32377;52.182;5.398;2022-11-15T12:35:27;6.53;;;1.63;;
46651;SDS011;32377;52.182;5.398;2022-11-15T12:38:08;7.65;;;2.40;;
46651;SDS011;32377;52.182;5.398;2022-11-15T12:40:39;8.98;;;2.22;;
46651;SDS011;32377;52.182;5.398;2022-11-15T12:43:41;14.40;;;2.92;;
46651;SDS011;32377;52.182;5.398;2022-11-15T12:48:59;4.35;;;1.70;;
46651;SDS011;32377;52.182;5.398;2022-11-15T13:02:17;6.10;;;1.58;;
46651;SDS011;32377;52.182;5.398;2022-11-15T13:30:40;5.07;;;2.30;;
46651;SDS011;32377;52.182;5.398;2022-11-15T13:33:17;6.78;;;2.53;;
46651;SDS011;32377;52.182;5.398;2022-11-15T13:36:08;7.93;;;2.47;;
46651;SDS011;32377;52.182;5.398;2022-11-15T13:38:43;5.68;;;2.38;;
46651;SDS011;32377;52.182;5.398;2022-11-15T13:41:20;8.85;;;2.38;;
46651;SDS011;32377;52.182;5.398;2022-11-15T13:43:51;4.90;;;2.20;;
46651;SDS011;32377;52.182;5.398;2022-11-15T13:46:22;7.82;;;2.38;;
46651;SDS011;32377;52.182;5.398;2022-11-15T13:59:29;9.25;;;2.95;;
46651;SDS011;32377;52.182;5.398;2022-11-15T14:01:58;18.35;;;2.90;;
46651;SDS011;32377;52.182;5.398;2022-11-15T14:04:37;7.47;;;3.30;;
46651;SDS011;32377;52.182;5.398;2022-11-15T14:07:15;9.27;;;3.13;;
46651;SDS011;32377;52.182;5.398;2022-11-15T14:09:45;7.70;;;2.45;;
46651;SDS011;32377;52.182;5.398;2022-11-15T14:12:32;12.93;;;2.53;;
46651;SDS011;32377;52.182;5.398;2022-11-15T14:14:59;14.48;;;5.65;;
46651;SDS011;32377;52.182;5.398;2022-11-15T14:20:27;5.53;;;2.42;;
46651;SDS011;32377;52.182;5.398;2022-11-15T14:22:59;12.88;;;2.28;;
46651;SDS011;32377;52.182;5.398;2022-11-15T14:25:30;6.25;;;2.53;;
46651;SDS011;32377;52.182;5.398;2022-11-15T14:30:36;4.22;;;1.95;;
46651;SDS011;32377;52.182;5.398;2022-11-15T14:33:11;6.20;;;1.90;;
46651;SDS011;32377;52.182;5.398;2022-11-15T14:35:53;5.47;;;2.30;;
46651;SDS011;32377;52.182;5.398;2022-11-15T14:38:21;6.40;;;2.17;;
46651;SDS011;32377;52.182;5.398;2022-11-15T14:40:46;8.10;;;2.53;;
46651;SDS011;32377;52.182;5.398;2022-11-15T14:43:13;8.93;;;2.42;;
46651;SDS011;32377;52.182;5.398;2022-11-15T14:45:40;6.38;;;2.10;;
46651;SDS011;32377;52.182;5.398;2022-11-15T14:48:06;6.45;;;2.20;;
46651;SDS011;32377;52.182;5.398;2022-11-15T14:50:32;5.93;;;2.30;;
46651;SDS011;32377;52.182;5.398;2022-11-15T14:52:59;8.93;;;1.95;;
46651;SDS011;32377;52.182;5.398;2022-11-15T14:55:25;7.40;;;2.08;;
46651;SDS011;32377;52.182;5.398;2022-11-15T14:57:54;4.97;;;2.13;;
46651;SDS011;32377;52.182;5.398;2022-11-15T15:00:20;5.38;;;2.00;;
46651;SDS011;32377;52.182;5.398;2022-11-15T15:02:46;5.13;;;1.58;;
46651;SDS011;32377;52.182;5.398;2022-11-15T15:05:15;8.50;;;1.75;;
46651;SDS011;32377;52.182;5.398;2022-11-15T15:07:45;6.97;;;2.00;;
46651;SDS011;32377;52.182;5.398;2022-11-15T15:10:11;5.35;;;1.80;;
46651;SDS011;32377;52.182;5.398;2022-11-15T15:12:38;6.93;;;2.17;;
46651;SDS011;32377;52.182;5.398;2022-11-15T15:15:04;5.47;;;2.08;;
46651;SDS011;32377;52.182;5.398;2022-11-15T15:17:30;7.03;;;2.17;;
46651;SDS011;32377;52.182;5.398;2022-11-15T15:19:56;7.43;;;2.03;;
46651;SDS011;32377;52.182;5.398;2022-11-15T15:22:21;4.03;;;1.73;;
46651;SDS011;32377;52.182;5.398;2022-11-15T15:24:51;6.22;;;1.98;;
46651;SDS011;32377;52.182;5.398;2022-11-15T15:27:16;10.10;;;2.50;;
46651;SDS011;32377;52.182;5.398;2022-11-15T15:29:42;6.22;;;1.90;;
46651;SDS011;32377;52.182;5.398;2022-11-15T15:32:08;6.45;;;2.13;;
46651;SDS011;32377;52.182;5.398;2022-11-15T15:34:35;5.68;;;2.47;;
46651;SDS011;32377;52.182;5.398;2022-11-15T15:37:21;7.05;;;1.90;;
46651;SDS011;32377;52.182;5.398;2022-11-15T15:39:51;4.28;;;2.10;;
46651;SDS011;32377;52.182;5.398;2022-11-15T15:42:18;4.60;;;1.63;;
46651;SDS011;32377;52.182;5.398;2022-11-15T15:44:44;6.50;;;2.10;;
46651;SDS011;32377;52.182;5.398;2022-11-15T15:47:14;7.65;;;2.20;;
46651;SDS011;32377;52.182;5.398;2022-11-15T15:49:42;12.32;;;3.20;;
46651;SDS011;32377;52.182;5.398;2022-11-15T15:52:07;7.78;;;3.47;;
46651;SDS011;32377;52.182;5.398;2022-11-15T15:54:33;7.05;;;2.30;;
46651;SDS011;32377;52.182;5.398;2022-11-15T15:56:58;4.18;;;2.00;;
46651;SDS011;32377;52.182;5.398;2022-11-15T15:59:24;5.95;;;1.70;;
46651;SDS011;32377;52.182;5.398;2022-11-15T16:01:50;5.70;;;2.35;;
46651;SDS011;32377;52.182;5.398;2022-11-15T16:04:15;6.13;;;1.88;;
46651;SDS011;32377;52.182;5.398;2022-11-15T16:06:41;5.88;;;2.42;;
46651;SDS011;32377;52.182;5.398;2022-11-15T16:09:16;3.25;;;1.80;;
46651;SDS011;32377;52.182;5.398;2022-11-15T16:11:45;6.07;;;1.73;;
46651;SDS011;32377;52.182;5.398;2022-11-15T16:14:11;5.05;;;2.13;;
46651;SDS011;32377;52.182;5.398;2022-11-15T16:16:37;10.82;;;2.00;;
46651;SDS011;32377;52.182;5.398;2022-11-15T16:19:03;3.97;;;1.75;;
46651;SDS011;32377;52.182;5.398;2022-11-15T16:21:29;4.78;;;1.52;;
46651;SDS011;32377;52.182;5.398;2022-11-15T16:23:55;6.65;;;2.33;;
46651;SDS011;32377;52.182;5.398;2022-11-15T16:28:48;9.93;;;1.90;;
46651;SDS011;32377;52.182;5.398;2022-11-15T16:31:14;8.07;;;1.90;;
46651;SDS011;32377;52.182;5.398;2022-11-15T16:33:43;6.32;;;2.05;;
46651;SDS011;32377;52.182;5.398;2022-11-15T16:38:50;5.88;;;2.05;;
46651;SDS011;32377;52.182;5.398;2022-11-15T16:41:17;4.88;;;1.50;;
46651;SDS011;32377;52.182;5.398;2022-11-15T16:43:44;7.03;;;1.88;;
46651;SDS011;32377;52.182;5.398;2022-11-15T16:46:15;6.50;;;2.00;;
46651;SDS011;32377;52.182;5.398;2022-11-15T16:48:46;9.57;;;2.25;;
46651;SDS011;32377;52.182;5.398;2022-11-15T16:51:13;5.82;;;2.17;;
46651;SDS011;32377;52.182;5.398;2022-11-15T16:53:39;6.68;;;2.63;;
46651;SDS011;32377;52.182;5.398;2022-11-15T16:56:20;10.05;;;4.38;;
46651;SDS011;32377;52.182;5.398;2022-11-15T16:58:49;10.30;;;3.47;;